»·PEaware :: N822JH KSFO-KMRY

N822JH :: KSFO-KMRY

FLIGHT INFORMATION

Flight Status: Arrived
Operator: Privately registered:
United States
More flights under this callsign
Pilot: William B. (10095)
Aircraft: PIPER PA-24 COMMANCHE
(PA24)
More flights by this aircraft type
Origin: KSFO San Francisco Intl
United States
Destination: KMRY Monterey Peninsula
United States
More flights between these airports :: More routes between these airports
Route: +OSI V87 SNS
File this flight plan on PilotEdge
Remarks: P3d V3.4 a2a commache vor to vor cant do sids or stars
Altitude:
(Current/Filed)
8,000ft
Speed:
(Current/Filed)
180kts
Departed: 04-Apr-17 01:32 PM
Arrived: 04-Apr-17 02:07 PM
Distance/Time
Traveled:
67nm/0:35
Distance/Time
To Go:
Arrived

Flight Plot

Page will automatically refresh every two minutes.


Map Options




Map Legend


Flown Route
Filed Route
Departure Airport
Arrival Airport
Navaid (VOR, NDB)
Fix

Horizontal Profiles

Position Reports

Time Latitude Longitude Heading Altitude Ground
Speed
04-Apr-17 13:10 37.628274 -122.385868 208 16ft 0kts
04-Apr-17 13:11 37.628274 -122.385868 208 16ft 0kts
04-Apr-17 13:12 37.628273 -122.385869 208 16ft 0kts
04-Apr-17 13:13 37.628270 -122.385871 208 16ft 0kts
04-Apr-17 13:14 37.628269 -122.385872 208 16ft 0kts
04-Apr-17 13:15 37.628267 -122.385873 208 16ft 0kts
04-Apr-17 13:16 37.628266 -122.385874 208 16ft 0kts
04-Apr-17 13:17 37.628264 -122.385875 208 16ft 0kts
04-Apr-17 13:18 37.628263 -122.385876 208 16ft 0kts
04-Apr-17 13:19 37.628261 -122.385877 208 16ft 0kts
04-Apr-17 13:20 37.628260 -122.385878 208 16ft 0kts
04-Apr-17 13:21 37.628258 -122.385879 208 16ft 0kts
04-Apr-17 13:22 37.628257 -122.385880 208 16ft 0kts
04-Apr-17 13:23 37.628255 -122.385881 208 16ft 0kts
04-Apr-17 13:24 37.628251 -122.385884 208 16ft 0kts
04-Apr-17 13:25 37.628248 -122.385886 208 16ft 0kts
04-Apr-17 13:26 37.628246 -122.385887 208 16ft 0kts
04-Apr-17 13:27 37.628244 -122.385889 208 16ft 0kts
04-Apr-17 13:28 37.627079 -122.385721 116 16ft 5kts
04-Apr-17 13:29 37.624710 -122.380060 118 16ft 15kts
04-Apr-17 13:30 37.622799 -122.375523 118 16ft 5kts
04-Apr-17 13:31 37.622365 -122.375471 228 16ft 0kts
04-Apr-17 13:32 37.622364 -122.375473 228 16ft 0kts
04-Apr-17 13:33 37.624815 -122.383925 296 94ft 84kts
04-Apr-17 13:34 37.636096 -122.413413 292 1323ft 97kts
04-Apr-17 13:35 37.649372 -122.451081 294 2915ft 103kts
04-Apr-17 13:36 37.658238 -122.479310 265 3780ft 109kts
04-Apr-17 13:37 37.632471 -122.480074 146 4939ft 122kts
04-Apr-17 13:38 37.599028 -122.452089 146 5043ft 161kts
04-Apr-17 13:39 37.560567 -122.420968 148 5137ft 164kts
04-Apr-17 13:40 37.522379 -122.389406 145 4985ft 164kts
04-Apr-17 13:41 37.484553 -122.358417 146 4963ft 162kts
04-Apr-17 13:42 37.447094 -122.326022 146 4967ft 163kts
04-Apr-17 13:43 37.408588 -122.294952 146 4992ft 165kts
04-Apr-17 13:44 37.368583 -122.267103 143 5020ft 166kts
04-Apr-17 13:45 37.331873 -122.231990 143 5097ft 165kts
04-Apr-17 13:46 37.294862 -122.197009 142 5119ft 165kts
04-Apr-17 13:47 37.254203 -122.171971 175 5099ft 165kts
04-Apr-17 13:48 37.208132 -122.167658 164 5094ft 167kts
04-Apr-17 13:49 37.171540 -122.131579 137 5033ft 169kts
04-Apr-17 13:50 37.136577 -122.092321 139 5190ft 169kts
04-Apr-17 13:51 37.100909 -122.053664 139 5147ft 169kts
04-Apr-17 13:52 37.064623 -122.016247 140 5102ft 170kts
04-Apr-17 13:53 37.029571 -121.975812 137 4915ft 170kts
04-Apr-17 13:54 36.993829 -121.938617 140 4844ft 166kts
04-Apr-17 13:55 36.959059 -121.901863 140 4965ft 164kts
04-Apr-17 13:56 36.924055 -121.864889 140 4963ft 164kts
04-Apr-17 13:57 36.888719 -121.828394 139 5076ft 168kts
04-Apr-17 13:58 36.852874 -121.791681 139 5031ft 166kts
04-Apr-17 13:59 36.817983 -121.753817 141 4953ft 166kts
04-Apr-17 14:00 36.781742 -121.717318 142 4870ft 165kts
04-Apr-17 14:01 36.747828 -121.681650 140 3969ft 168kts
04-Apr-17 14:02 36.701574 -121.682940 193 3699ft 177kts
04-Apr-17 14:03 36.657349 -121.704430 207 3357ft 168kts
04-Apr-17 14:04 36.620844 -121.742098 221 3094ft 169kts
04-Apr-17 14:05 36.593813 -121.781890 224 1845ft 125kts
04-Apr-17 14:06 36.576800 -121.812885 284 910ft 92kts
04-Apr-17 14:07 36.585140 -121.838875 292 219ft 63kts
04-Apr-17 14:08 36.589928 -121.853519 251 208ft 4kts
04-Apr-17 14:09 36.588430 -121.852295 140 208ft 13kts
04-Apr-17 14:10 36.588320 -121.851633 22 208ft 0kts
04-Apr-17 14:11 36.588320 -121.851633 22 208ft 0kts
04-Apr-17 14:12 36.588320 -121.851633 22 208ft 0kts

Navigation Log

Ident Type
Flight plan parsing failed, navigation log unavailable